Fort Kent Mills, ME (04744)

8:02 AM EDT on August 04, 2015 (GMT -0400)
Apex Wx | | Change Station
CLOSE
Current Station
Personal Weather Station
Location: Fort Kent, ME
Elevation: 541 ft
Nearby Weather Stations

Elev 541 ft 47.25 °N, 68.58 °W | Updated 21 seconds ago

Overcast
Overcast
65.1 °F
Feels Like 65.1 °F
N
0.0
Wind Variable Wind from SE
Gusts 3.0 mph

Today
High -- | Low -- °F
--% Chance of Precip.
Yesterday
High -- | Low -- °F
Precip. -- in
5:16 AM 8:03 PM
Waning Gibbous, 78% visible
Pressure 29.79 in
Visibility 8.0 miles
Clouds Mostly Cloudy 200 ft
Overcast 3400 ft
Dew Point 64 °F
Humidity 95%
Rainfall 0.07 in
Snow Depth Not available.
UV 1 out of 12
Pollen 4.20 out of 12
Air Quality Not available.
Flu Activity Not available.
METAR KFVE 041153Z AUTO 20003KT 8SM BKN002 OVC034 17/16 A2980 RMK AO2 SLP088 60001 70057 T01670161 10167 20150 51007

More Conditions Fewer Conditions

Pressure 29.79 in
Visibility 8.0 miles
Clouds Mostly Cloudy 200 ft
Overcast 3400 ft
Dew Point 64 °F
Humidity 95%
Rainfall 0.07 in
Snow Depth Not available.
UV 1 out of 12
Pollen 4.20 out of 12
Air Quality Not available.
Flu Activity Not available.
METAR KFVE 041153Z AUTO 20003KT 8SM BKN002 OVC034 17/16 A2980 RMK AO2 SLP088 60001 70057 T01670161 10167 20150 51007

More Conditions Fewer Conditions

10-Day Weather Forecast

×

Almanac

Astronomy

Aug. 04, 2015 Rise Set
Actual Time
Civil Twilight
Nautical Twilight
Astronomical Twilight
Moon
Length of Visible Light
Length of Day
Tomorrow will be .
, % of the Moon is Illuminated

Today's Extremes

State Highs State Lows

Community

WunderPhotos

Upload Photos

1,843,905 photos uploaded!

WunderBlogs® & News

Nearby

Air Quality

  Air Quality AQ Index Pollutant
Not available.

Snow Depth

Station Depth Elevation

Earthquake Activity

City Distance Mag. Time & Date
Minimum magnitude displayed is 2.5.

Coastal Water Temperatures

Place Temperature

Stations

Nearby Weather Stations

Station Location Temp. Windchill Dew Point Humidity Wind Precip. Elev Updated Type